Terminal Aerodrome Forecast
Issued by NWS

Home | Current Version | Previous Version | Text Only | Print | Product List | Glossary On
Versions: 1 2 3 4 5 6 7 8 9 10 11 12 13 14 15
000
FTUS45 KBOI 280013 AAA
TAFJER
TAF AMD
KJER 280013Z 2800/2824 26010KT P6SM SKC
     FM280300 VRB06KT P6SM SKC
     FM281700 25014G22KT P6SM SKC=

USA.gov is the U.S. government's official web portal to all federal, state and local government web resources and services.